Ana Sayfa
METAR-TAF:

METAR-TAF

Havaalanları :

Pekanbaru, Endonezya

Enlem: 00-28N, Boylam: 101-27E, yükseklik: 31 m

Güncel hava durumu gözlemi

Rapor saat 08:00 UTC de 10 saat ve 54 dakika önce yapıldı.
Rüzgar doğu/kuzeydoğudan 8 kt
Sıcaklık 29°C
Nem 74%
Basınç 1007 hPa
Görüş mesafesi: 8000 m
1200 ft yükseklikte parçalı bulutlu
1500 ft yükseklikte az bulutlu, Kümülonimbus.
hafif yağmur

METAR: WIBB 100800Z 06008KT 8000 -RA SCT012 FEW015CB 29/24 Q1007

Saat: 01:54 (18:54 UTC)


TAF: eksik

4.000'den fazla havaalanı için hava durumu gözlemleri ve tahminleri (METAR ve TAF raporları).

Kullanılabilir istasyonlar harita üzerinde sarı ve kırmızı noktalarla gösterilir.

İstasyonun adını görmek için fareyi noktanın üzerinde gezdirin.

Sonrasında hava gözlem ve tahminlerini görmek için tıklayın.

Haritayı değiştirmek için: yaklaştırmak için siyah artı işaretli yeşil düğmeye ve uzaklaştırmak için de eksi işaretli düğmeye hızla tıklayın; bitişik haritalar için yeşil okları kullanın.


METAR-TAF: